• Join FlightAware (Why Join?)
  • Login
  • US Flag 
02:19AM EDT


 

Airport Tracker/Info


-or-


 

Live Flight TrackerFlight Track Log ✈ N612TX ✈ 05-May-2014 ✈ KGRI - KSUE

Flight Track Log - Related Links

Times and Time Zones

All times are in EDT time to prevent confusion due to time zone crossing. See the N612TX flight status page for this flight to view local times or setup timezone preferences in your user account.

Time Position Orientation Groundspeed Altitude Reporting Facility
EDT Latitude Longitude Course Direction KTS MPH feet Rate Location/Type
10:52AM 41.0231 -98.3125 North 139 160 4,100  Level Minneapolis Center
10:53AM 41.0669 -98.3139 359° North 148 170 5,400 1,320 Climbing Minneapolis Center
10:54AM 41.1114 -98.2831 28° Northeast 175 201 6,900 1,500 Climbing Minneapolis Center
10:56AM 41.1364 -98.2250 60° Northeast 179 206 8,500 1,620 Climbing Minneapolis Center
10:57AM 41.1912 -97.7677 56° Northeast  Level FlightAware Approximate
10:57AM 41.1669 -98.1508 61° Northeast 187 215 10,300  Level Minneapolis Center
10:58AM 41.1928 -98.0872 62° Northeast 190 219 11,600 1,140 Climbing Minneapolis Center
10:59AM 41.2203 -98.0200 61° Northeast 202 232 12,700 1,080 Climbing Minneapolis Center
11:00AM 41.2494 -97.9511 61° Northeast 209 241 13,900 1,020 Climbing Minneapolis Center
11:01AM 41.2786 -97.8786 62° Northeast 216 249 14,900 1,020 Climbing Minneapolis Center
11:02AM 41.3094 -97.8042 61° Northeast 224 258 16,000 960 Climbing Minneapolis Center
11:03AM 41.3400 -97.7294 61° Northeast 229 264 16,900 900 Climbing Minneapolis Center
11:04AM 41.3728 -97.6492 61° Northeast 239 275 17,900 1,020 Climbing Minneapolis Center
11:05AM 41.4111 -97.5536 62° Northeast 241 277 19,100 1,020 Climbing Minneapolis Center
11:06AM 41.4442 -97.4736 61° Northeast 242 278 20,000 720 Climbing Minneapolis Center
11:07AM 41.4761 -97.3922 62° Northeast 244 281 20,600 540 Climbing Minneapolis Center
11:08AM 41.5103 -97.3081 62° Northeast 251 289 21,200 600 Climbing Minneapolis Center
11:09AM 41.5450 -97.2219 62° Northeast 257 296 21,900 660 Climbing Minneapolis Center
11:10AM 41.5789 -97.1342 63° Northeast 261 300 22,600 600 Climbing Minneapolis Center
11:11AM 41.6139 -97.0464 62° Northeast 262 302 23,200 600 Climbing Minneapolis Center
11:12AM 41.6500 -96.9569 62° Northeast 266 306 23,900 480 Climbing Minneapolis Center
11:13AM 41.6922 -96.8494 62° Northeast 268 308 24,300 420 Climbing Minneapolis Center
11:14AM 41.7283 -96.7592 62° Northeast 269 310 24,800 300 Climbing Minneapolis Center
11:15AM 41.7647 -96.6653 63° Northeast 276 318 25,000 60 Climbing Minneapolis Center
11:16AM 41.8025 -96.5694 62° Northeast 285 328 25,000  Level Minneapolis Center
11:17AM 41.8422 -96.4675 62° Northeast 299 344 25,000  Level Minneapolis Center
11:18AM 41.8819 -96.3667 62° Northeast 304 350 25,000  Level Minneapolis Center
11:19AM 41.9211 -96.2636 63° Northeast 304 350 25,000  Level Minneapolis Center
11:20AM 41.9617 -96.1597 62° Northeast 309 356 25,000  Level Minneapolis Center
11:21AM 42.0089 -96.0339 63° Northeast 311 358 25,000  Level Minneapolis Center
11:22AM 42.0489 -95.9303 63° Northeast 311 358 25,000  Level Minneapolis Center
11:23AM 42.0886 -95.8258 63° Northeast 311 358 25,000  Level Minneapolis Center
11:24AM 42.1281 -95.7222 63° Northeast 311 358 25,000  Level Minneapolis Center
11:25AM 42.1675 -95.6167 63° Northeast 312 359 25,000  Level Minneapolis Center
11:26AM 42.2083 -95.5128 62° Northeast 312 359 25,000  Level Minneapolis Center
11:27AM 42.2475 -95.4056 64° Northeast 314 361 25,000  Level Minneapolis Center
11:28AM 42.2878 -95.3011 62° Northeast 315 362 25,000  Level Minneapolis Center
11:29AM 42.3264 -95.1939 64° Northeast 315 362 25,000  Level Minneapolis Center
11:30AM 42.3744 -95.0664 63° Northeast 316 364 25,000  Level Minneapolis Center
11:32AM 42.4142 -94.9592 63° Northeast 318 366 25,000  Level Minneapolis Center
11:33AM 42.4536 -94.8511 64° Northeast 318 366 25,000  Level Minneapolis Center
11:34AM 42.4936 -94.7436 63° Northeast 319 367 25,000  Level Minneapolis Center
11:36AM 42.5753 -94.5194 64° Northeast 320 368 25,000  Level Minneapolis Center
11:37AM 42.6153 -94.4144 63° Northeast 319 367 25,000  Level Minneapolis Center
11:38AM 42.6528 -94.3050 65° Northeast 319 367 25,000  Level Minneapolis Center
11:39AM 42.6919 -94.1981 63° Northeast 319 367 25,000  Level Minneapolis Center
11:40AM 42.7383 -94.0686 64° Northeast 319 367 25,000  Level Minneapolis Center
11:41AM 42.7767 -93.9617 64° Northeast 319 367 25,000  Level Minneapolis Center
11:42AM 42.8147 -93.8528 64° Northeast 319 367 25,000  Level Minneapolis Center
11:43AM 42.8531 -93.7439 64° Northeast 320 368 25,000  Level Minneapolis Center
11:44AM 42.8919 -93.6356 64° Northeast 320 368 25,000  Level Minneapolis Center
11:45AM 42.9303 -93.5258 64° Northeast 320 368 25,000  Level Minneapolis Center
11:46AM 42.9753 -93.3958 65° Northeast 320 368 25,000  Level Minneapolis Center
11:47AM 43.0131 -93.2864 65° Northeast 320 368 25,000  Level Minneapolis Center
11:48AM 43.0508 -93.1761 65° Northeast 320 368 25,000  Level Minneapolis Center
11:49AM 43.0900 -93.0661 64° Northeast 320 368 25,000  Level Minneapolis Center
11:50AM 43.1275 -92.9561 65° Northeast 320 368 25,000  Level Minneapolis Center
11:51AM 43.1658 -92.8467 64° Northeast 320 368 25,000  Level Minneapolis Center
11:52AM 43.2103 -92.7158 65° Northeast 320 368 25,000  Level Minneapolis Center
11:53AM 43.2469 -92.6069 65° Northeast 320 368 25,000  Level Minneapolis Center
11:54AM 43.2842 -92.4961 65° Northeast 319 367 25,000  Level Minneapolis Center
11:55AM 43.3222 -92.3850 65° Northeast 320 368 25,000  Level Minneapolis Center
11:56AM 43.3603 -92.2736 65° Northeast 320 368 25,000  Level Minneapolis Center
11:57AM 43.3967 -92.1619 66° East 320 368 25,000  Level Minneapolis Center
11:58AM 43.4419 -92.0294 65° Northeast 321 369 25,000  Level Minneapolis Center
11:59AM 43.4781 -91.9169 66° East 320 368 25,000  Level Minneapolis Center
12:00PM 43.5153 -91.8069 65° Northeast 320 368 25,000  Level Minneapolis Center
12:01PM 43.5511 -91.6939 66° East 320 368 25,000  Level Minneapolis Center
12:02PM 43.5881 -91.5825 65° Northeast 320 368 25,000  Level Minneapolis Center
12:03PM 43.6244 -91.4717 66° East 320 368 25,000  Level Minneapolis Center
12:04PM 43.6611 -91.3594 66° East 320 368 25,000  Level Minneapolis Center
12:06PM 43.7039 -91.2267 66° East 320 368 25,100  Climbing Minneapolis Center
12:06PM 43.7322 -91.1381 66° East 320 368 25,000 -60 Descending Minneapolis Center
12:07PM 43.7681 -91.0269 66° East 320 368 25,000  Level Minneapolis Center
12:08PM 43.8031 -90.9150 67° East 319 367 25,000  Level Minneapolis Center
12:09PM 43.8236 -90.8522 66° East 314 361 25,000  Level Chicago Center
12:10PM 43.8592 -90.7414 66° East 314 361 25,000  Level Chicago Center
12:11PM 43.9144 -90.5625 67° East 314 361 25,000  Level Minneapolis Center
12:13PM 43.9481 -90.4603 65° Northeast 315 362 25,000  Level Minneapolis Center
12:14PM 43.9819 -90.3492 67° East 314 361 25,000  Level Minneapolis Center
12:15PM 44.0161 -90.2386 67° East 314 361 25,000  Level Minneapolis Center
12:16PM 44.0494 -90.1286 67° East 313 360 25,000  Level Minneapolis Center
12:17PM 44.0911 -89.9953 66° East 312 359 25,000  Level Minneapolis Center
12:18PM 44.1250 -89.8844 67° East 312 359 25,000  Level Minneapolis Center
12:19PM 44.1594 -89.7728 67° East 312 359 25,000  Level Minneapolis Center
12:20PM 44.1931 -89.6614 67° East 312 359 25,000  Level Minneapolis Center
12:21PM 44.2272 -89.5497 67° East 313 360 25,000 -240 Level Minneapolis Center
12:22PM 44.2600 -89.4386 68° East 313 360 24,600 -600 Descending Minneapolis Center
12:23PM 44.2958 -89.3228 67° East 318 366 23,800 -1,080 Descending Minneapolis Center
12:24PM 44.3378 -89.1814 67° East 324 373 22,400 -1,320 Descending Minneapolis Center
12:25PM 44.3708 -89.0681 68° East 322 371 21,100 -1,380 Descending Minneapolis Center
12:26PM 44.4036 -88.9578 67° East 314 361 19,600 -1,500 Descending Minneapolis Center
12:27PM 44.4369 -88.8469 67° East 314 361 18,000 -1,500 Descending Minneapolis Center
12:28PM 44.4686 -88.7361 68° East 313 360 16,600 -1,560 Descending Minneapolis Center
12:29PM 44.5008 -88.6300 67° East 303 349 14,900 -1,620 Descending Minneapolis Center
12:30PM 44.5317 -88.5233 68° East 297 342 13,300 -1,380 Descending Minneapolis Center
12:31PM 44.5606 -88.4217 68° East 288 331 12,100 -1,260 Descending Minneapolis Center
12:32PM 44.5919 -88.3111 68° East 261 300 10,800 -1,200 Descending Minneapolis Center
12:33PM 44.6178 -88.2211 68° East 252 290 9,700 -1,080 Descending Minneapolis Center
12:34PM 44.6444 -88.1286 68° East 253 291 8,600 -1,080 Descending Minneapolis Center
12:35PM 44.6719 -88.0336 68° East 258 297 7,500 -1,080 Descending Minneapolis Center
12:36PM 44.6981 -87.9389 69° East 260 299 6,400 -1,080 Descending Minneapolis Center
12:38PM 44.7273 -87.8002 69° East  Level FlightAware Approximate
12:45PM 44.8333 -87.4167 65° Northeast  Level FlightAware Approximate
12:46PM 44.8437 -87.4215 65° Northeast  Level Estimated
12:47PM 44.8437 -87.4215 65° Northeast  Level Estimated